sensor_id;sensor_type;location;lat;lon;timestamp;temperature;humidity
5059;DHT22;2548;52.050;11.036;2024-01-30T00:02:01;1.10;99.90
5059;DHT22;2548;52.050;11.036;2024-01-30T00:04:28;1.10;99.90
5059;DHT22;2548;52.050;11.036;2024-01-30T00:06:55;1.10;99.90
5059;DHT22;2548;52.050;11.036;2024-01-30T00:09:23;1.10;99.90
5059;DHT22;2548;52.050;11.036;2024-01-30T00:11:51;1.20;99.90
5059;DHT22;2548;52.050;11.036;2024-01-30T00:14:18;1.20;99.90
5059;DHT22;2548;52.050;11.036;2024-01-30T00:16:48;1.20;99.90
5059;DHT22;2548;52.050;11.036;2024-01-30T00:19:16;1.10;99.90
5059;DHT22;2548;52.050;11.036;2024-01-30T00:21:44;1.10;99.90
5059;DHT22;2548;52.050;11.036;2024-01-30T00:24:11;1.20;99.90
5059;DHT22;2548;52.050;11.036;2024-01-30T00:26:39;1.10;99.90
5059;DHT22;2548;52.050;11.036;2024-01-30T00:29:06;1.10;99.90
5059;DHT22;2548;52.050;11.036;2024-01-30T00:31:34;1.10;99.90
5059;DHT22;2548;52.050;11.036;2024-01-30T00:34:02;1.10;99.90
5059;DHT22;2548;52.050;11.036;2024-01-30T00:36:31;1.00;99.90
5059;DHT22;2548;52.050;11.036;2024-01-30T00:39:00;0.90;99.90
5059;DHT22;2548;52.050;11.036;2024-01-30T00:41:27;0.80;99.90
5059;DHT22;2548;52.050;11.036;2024-01-30T00:43:55;0.80;99.90
5059;DHT22;2548;52.050;11.036;2024-01-30T00:46:22;0.70;99.90
5059;DHT22;2548;52.050;11.036;2024-01-30T00:48:50;0.60;99.90
5059;DHT22;2548;52.050;11.036;2024-01-30T00:51:17;0.60;99.90
5059;DHT22;2548;52.050;11.036;2024-01-30T00:53:46;0.60;99.90
5059;DHT22;2548;52.050;11.036;2024-01-30T00:56:14;0.60;99.90
5059;DHT22;2548;52.050;11.036;2024-01-30T00:58:44;0.60;99.90
5059;DHT22;2548;52.050;11.036;2024-01-30T01:01:11;0.60;99.90
5059;DHT22;2548;52.050;11.036;2024-01-30T01:03:39;0.60;99.90
5059;DHT22;2548;52.050;11.036;2024-01-30T01:06:07;0.70;99.90
5059;DHT22;2548;52.050;11.036;2024-01-30T01:08:34;0.70;99.90
5059;DHT22;2548;52.050;11.036;2024-01-30T01:11:03;0.70;99.90
5059;DHT22;2548;52.050;11.036;2024-01-30T01:13:31;0.70;99.90
5059;DHT22;2548;52.050;11.036;2024-01-30T01:15:58;0.70;99.90
5059;DHT22;2548;52.050;11.036;2024-01-30T01:18:25;0.70;99.90
5059;DHT22;2548;52.050;11.036;2024-01-30T01:20:54;0.70;99.90
5059;DHT22;2548;52.050;11.036;2024-01-30T01:23:21;0.80;99.90
5059;DHT22;2548;52.050;11.036;2024-01-30T01:25:48;0.80;99.90
5059;DHT22;2548;52.050;11.036;2024-01-30T01:28:17;0.80;99.90
5059;DHT22;2548;52.050;11.036;2024-01-30T01:30:45;0.80;99.90
5059;DHT22;2548;52.050;11.036;2024-01-30T01:33:12;0.90;99.90
5059;DHT22;2548;52.050;11.036;2024-01-30T01:35:40;0.90;99.90
5059;DHT22;2548;52.050;11.036;2024-01-30T01:38:07;0.90;99.90
5059;DHT22;2548;52.050;11.036;2024-01-30T01:40:35;0.90;99.90
5059;DHT22;2548;52.050;11.036;2024-01-30T01:43:06;0.80;99.90
5059;DHT22;2548;52.050;11.036;2024-01-30T01:45:35;0.80;99.90
5059;DHT22;2548;52.050;11.036;2024-01-30T01:48:03;0.80;99.90
5059;DHT22;2548;52.050;11.036;2024-01-30T01:50:30;0.80;99.90
5059;DHT22;2548;52.050;11.036;2024-01-30T01:52:58;0.90;99.90
5059;DHT22;2548;52.050;11.036;2024-01-30T01:55:26;0.90;99.90
5059;DHT22;2548;52.050;11.036;2024-01-30T01:57:54;0.90;99.90
5059;DHT22;2548;52.050;11.036;2024-01-30T02:00:22;0.80;99.90
5059;DHT22;2548;52.050;11.036;2024-01-30T02:02:53;0.70;99.90
5059;DHT22;2548;52.050;11.036;2024-01-30T02:05:21;0.80;99.90
5059;DHT22;2548;52.050;11.036;2024-01-30T02:07:51;0.70;99.90
5059;DHT22;2548;52.050;11.036;2024-01-30T02:10:19;0.60;99.90
5059;DHT22;2548;52.050;11.036;2024-01-30T02:12:46;0.50;99.90
5059;DHT22;2548;52.050;11.036;2024-01-30T02:15:14;0.50;99.90
5059;DHT22;2548;52.050;11.036;2024-01-30T02:17:41;0.40;99.90
5059;DHT22;2548;52.050;11.036;2024-01-30T02:20:11;0.40;99.90
5059;DHT22;2548;52.050;11.036;2024-01-30T02:22:41;0.20;99.90
5059;DHT22;2548;52.050;11.036;2024-01-30T02:25:08;0.20;99.90
5059;DHT22;2548;52.050;11.036;2024-01-30T02:27:36;0.20;99.90
5059;DHT22;2548;52.050;11.036;2024-01-30T02:30:04;0.20;99.90
5059;DHT22;2548;52.050;11.036;2024-01-30T02:32:32;0.20;99.90
5059;DHT22;2548;52.050;11.036;2024-01-30T02:34:59;0.10;99.90
5059;DHT22;2548;52.050;11.036;2024-01-30T02:37:27;0.20;99.90
5059;DHT22;2548;52.050;11.036;2024-01-30T02:39:56;0.20;99.90
5059;DHT22;2548;52.050;11.036;2024-01-30T02:42:23;0.30;99.90
5059;DHT22;2548;52.050;11.036;2024-01-30T02:44:51;0.40;99.90
5059;DHT22;2548;52.050;11.036;2024-01-30T02:47:18;0.50;99.90
5059;DHT22;2548;52.050;11.036;2024-01-30T02:49:45;0.50;99.90
5059;DHT22;2548;52.050;11.036;2024-01-30T02:52:13;0.50;99.90
5059;DHT22;2548;52.050;11.036;2024-01-30T02:54:40;0.40;99.90
5059;DHT22;2548;52.050;11.036;2024-01-30T02:57:09;0.40;99.90
5059;DHT22;2548;52.050;11.036;2024-01-30T02:59:37;0.50;99.90
5059;DHT22;2548;52.050;11.036;2024-01-30T03:02:04;0.50;99.90
5059;DHT22;2548;52.050;11.036;2024-01-30T03:04:31;0.50;99.90
5059;DHT22;2548;52.050;11.036;2024-01-30T03:06:59;0.50;99.90
5059;DHT22;2548;52.050;11.036;2024-01-30T03:09:26;0.50;99.90
5059;DHT22;2548;52.050;11.036;2024-01-30T03:11:54;0.50;99.90
5059;DHT22;2548;52.050;11.036;2024-01-30T03:14:23;0.50;99.90
5059;DHT22;2548;52.050;11.036;2024-01-30T03:16:50;0.50;99.90
5059;DHT22;2548;52.050;11.036;2024-01-30T03:19:18;0.50;99.90
5059;DHT22;2548;52.050;11.036;2024-01-30T03:21:46;0.60;99.90
5059;DHT22;2548;52.050;11.036;2024-01-30T03:24:13;0.50;99.90
5059;DHT22;2548;52.050;11.036;2024-01-30T03:26:40;0.50;99.90
5059;DHT22;2548;52.050;11.036;2024-01-30T03:29:08;0.50;99.90
5059;DHT22;2548;52.050;11.036;2024-01-30T03:31:37;0.50;99.90
5059;DHT22;2548;52.050;11.036;2024-01-30T03:34:04;0.50;99.90
5059;DHT22;2548;52.050;11.036;2024-01-30T03:36:32;0.50;99.90
5059;DHT22;2548;52.050;11.036;2024-01-30T03:39:00;0.50;99.90
5059;DHT22;2548;52.050;11.036;2024-01-30T03:41:28;0.50;99.90
5059;DHT22;2548;52.050;11.036;2024-01-30T03:43:55;0.50;99.90
5059;DHT22;2548;52.050;11.036;2024-01-30T03:46:23;0.50;99.90
5059;DHT22;2548;52.050;11.036;2024-01-30T03:48:52;0.50;99.90
5059;DHT22;2548;52.050;11.036;2024-01-30T03:51:19;0.50;99.90
5059;DHT22;2548;52.050;11.036;2024-01-30T03:53:47;0.50;99.90
5059;DHT22;2548;52.050;11.036;2024-01-30T03:56:14;0.60;99.90
5059;DHT22;2548;52.050;11.036;2024-01-30T03:58:41;0.60;99.90
5059;DHT22;2548;52.050;11.036;2024-01-30T04:01:13;0.60;99.90
5059;DHT22;2548;52.050;11.036;2024-01-30T04:03:40;0.70;99.90
5059;DHT22;2548;52.050;11.036;2024-01-30T04:06:12;0.70;99.90
5059;DHT22;2548;52.050;11.036;2024-01-30T04:08:39;0.70;99.90
5059;DHT22;2548;52.050;11.036;2024-01-30T04:11:07;0.80;99.90
5059;DHT22;2548;52.050;11.036;2024-01-30T04:13:34;0.80;99.90
5059;DHT22;2548;52.050;11.036;2024-01-30T04:16:03;0.80;99.90
5059;DHT22;2548;52.050;11.036;2024-01-30T04:18:30;0.70;99.90
5059;DHT22;2548;52.050;11.036;2024-01-30T04:20:58;0.60;99.90
5059;DHT22;2548;52.050;11.036;2024-01-30T04:23:27;0.60;99.90
5059;DHT22;2548;52.050;11.036;2024-01-30T04:25:54;0.50;99.90
5059;DHT22;2548;52.050;11.036;2024-01-30T04:28:22;0.50;99.90
5059;DHT22;2548;52.050;11.036;2024-01-30T04:30:49;0.50;99.90
5059;DHT22;2548;52.050;11.036;2024-01-30T04:33:17;0.50;99.90
5059;DHT22;2548;52.050;11.036;2024-01-30T04:35:44;0.40;99.90
5059;DHT22;2548;52.050;11.036;2024-01-30T04:38:11;0.40;99.90
5059;DHT22;2548;52.050;11.036;2024-01-30T04:40:41;0.40;99.90
5059;DHT22;2548;52.050;11.036;2024-01-30T04:43:09;0.40;99.90
5059;DHT22;2548;52.050;11.036;2024-01-30T04:45:37;0.30;99.90
5059;DHT22;2548;52.050;11.036;2024-01-30T04:48:05;0.20;99.90
5059;DHT22;2548;52.050;11.036;2024-01-30T04:50:33;0.20;99.90
5059;DHT22;2548;52.050;11.036;2024-01-30T04:53:00;0.20;99.90
5059;DHT22;2548;52.050;11.036;2024-01-30T04:55:28;0.20;99.90
5059;DHT22;2548;52.050;11.036;2024-01-30T04:57:56;0.20;99.90
5059;DHT22;2548;52.050;11.036;2024-01-30T05:00:28;0.20;99.90
5059;DHT22;2548;52.050;11.036;2024-01-30T05:02:56;0.30;99.90
5059;DHT22;2548;52.050;11.036;2024-01-30T05:05:23;0.20;99.90
5059;DHT22;2548;52.050;11.036;2024-01-30T05:07:51;0.20;99.90
5059;DHT22;2548;52.050;11.036;2024-01-30T05:10:18;0.20;99.90
5059;DHT22;2548;52.050;11.036;2024-01-30T05:12:46;0.20;99.90
5059;DHT22;2548;52.050;11.036;2024-01-30T05:15:15;0.20;99.90
5059;DHT22;2548;52.050;11.036;2024-01-30T05:17:42;0.20;99.90
5059;DHT22;2548;52.050;11.036;2024-01-30T05:20:19;0.30;99.90
5059;DHT22;2548;52.050;11.036;2024-01-30T05:23:04;0.30;99.90
5059;DHT22;2548;52.050;11.036;2024-01-30T05:25:37;0.40;99.90
5059;DHT22;2548;52.050;11.036;2024-01-30T05:28:06;0.40;99.90
5059;DHT22;2548;52.050;11.036;2024-01-30T05:30:34;0.40;99.90
5059;DHT22;2548;52.050;11.036;2024-01-30T05:33:02;0.30;99.90
5059;DHT22;2548;52.050;11.036;2024-01-30T05:35:30;0.30;99.90
5059;DHT22;2548;52.050;11.036;2024-01-30T05:37:57;0.30;99.90
5059;DHT22;2548;52.050;11.036;2024-01-30T05:40:25;0.30;99.90
5059;DHT22;2548;52.050;11.036;2024-01-30T05:42:52;0.30;99.90
5059;DHT22;2548;52.050;11.036;2024-01-30T05:45:19;0.40;99.90
5059;DHT22;2548;52.050;11.036;2024-01-30T05:47:50;0.40;99.90
5059;DHT22;2548;52.050;11.036;2024-01-30T05:50:17;0.40;99.90
5059;DHT22;2548;52.050;11.036;2024-01-30T05:52:45;0.40;99.90
5059;DHT22;2548;52.050;11.036;2024-01-30T05:55:13;0.40;99.90
5059;DHT22;2548;52.050;11.036;2024-01-30T05:57:40;0.40;99.90
5059;DHT22;2548;52.050;11.036;2024-01-30T06:00:08;0.40;99.90
5059;DHT22;2548;52.050;11.036;2024-01-30T06:02:35;0.40;99.90
5059;DHT22;2548;52.050;11.036;2024-01-30T06:05:05;0.40;99.90
5059;DHT22;2548;52.050;11.036;2024-01-30T06:07:32;0.40;99.90
5059;DHT22;2548;52.050;11.036;2024-01-30T06:10:00;0.40;99.90
5059;DHT22;2548;52.050;11.036;2024-01-30T06:12:28;0.40;99.90
5059;DHT22;2548;52.050;11.036;2024-01-30T06:14:55;0.40;99.90
5059;DHT22;2548;52.050;11.036;2024-01-30T06:17:23;0.40;99.90
5059;DHT22;2548;52.050;11.036;2024-01-30T06:19:50;0.40;99.90
5059;DHT22;2548;52.050;11.036;2024-01-30T06:22:19;0.40;99.90
5059;DHT22;2548;52.050;11.036;2024-01-30T06:24:47;0.40;99.90
5059;DHT22;2548;52.050;11.036;2024-01-30T06:27:15;0.40;99.90
5059;DHT22;2548;52.050;11.036;2024-01-30T06:29:43;0.30;99.90
5059;DHT22;2548;52.050;11.036;2024-01-30T06:32:11;0.40;99.90
5059;DHT22;2548;52.050;11.036;2024-01-30T06:34:38;0.40;99.90
5059;DHT22;2548;52.050;11.036;2024-01-30T06:37:06;0.30;99.90
5059;DHT22;2548;52.050;11.036;2024-01-30T06:39:35;0.30;99.90
5059;DHT22;2548;52.050;11.036;2024-01-30T06:42:03;0.40;99.90
5059;DHT22;2548;52.050;11.036;2024-01-30T06:44:30;0.40;99.90
5059;DHT22;2548;52.050;11.036;2024-01-30T06:46:58;0.40;99.90
5059;DHT22;2548;52.050;11.036;2024-01-30T06:49:25;0.30;99.90
5059;DHT22;2548;52.050;11.036;2024-01-30T06:51:53;0.30;99.90
5059;DHT22;2548;52.050;11.036;2024-01-30T06:54:20;0.30;99.90
5059;DHT22;2548;52.050;11.036;2024-01-30T06:56:49;0.30;99.90
5059;DHT22;2548;52.050;11.036;2024-01-30T06:59:16;0.30;99.90
5059;DHT22;2548;52.050;11.036;2024-01-30T07:01:44;0.30;99.90
5059;DHT22;2548;52.050;11.036;2024-01-30T07:04:11;0.30;99.90
5059;DHT22;2548;52.050;11.036;2024-01-30T07:06:39;0.30;99.90
5059;DHT22;2548;52.050;11.036;2024-01-30T07:09:06;0.30;99.90
5059;DHT22;2548;52.050;11.036;2024-01-30T07:11:34;0.30;99.90
5059;DHT22;2548;52.050;11.036;2024-01-30T07:14:03;0.30;99.90
5059;DHT22;2548;52.050;11.036;2024-01-30T07:16:31;0.30;99.90
5059;DHT22;2548;52.050;11.036;2024-01-30T07:18:58;0.40;99.90
5059;DHT22;2548;52.050;11.036;2024-01-30T07:21:26;0.40;99.90
5059;DHT22;2548;52.050;11.036;2024-01-30T07:23:55;0.40;99.90
5059;DHT22;2548;52.050;11.036;2024-01-30T07:26:23;0.40;99.90
5059;DHT22;2548;52.050;11.036;2024-01-30T07:28:50;0.50;99.90
5059;DHT22;2548;52.050;11.036;2024-01-30T07:31:19;0.40;99.90
5059;DHT22;2548;52.050;11.036;2024-01-30T07:33:49;0.40;99.90
5059;DHT22;2548;52.050;11.036;2024-01-30T07:36:16;0.40;99.90
5059;DHT22;2548;52.050;11.036;2024-01-30T07:38:44;0.40;99.90
5059;DHT22;2548;52.050;11.036;2024-01-30T07:41:11;0.40;99.90
5059;DHT22;2548;52.050;11.036;2024-01-30T07:43:39;0.40;99.90
5059;DHT22;2548;52.050;11.036;2024-01-30T07:46:06;0.50;99.90
5059;DHT22;2548;52.050;11.036;2024-01-30T07:48:35;0.50;99.90
5059;DHT22;2548;52.050;11.036;2024-01-30T07:51:03;0.50;99.90
5059;DHT22;2548;52.050;11.036;2024-01-30T07:53:30;0.50;99.90
5059;DHT22;2548;52.050;11.036;2024-01-30T07:55:58;0.60;99.90
5059;DHT22;2548;52.050;11.036;2024-01-30T07:58:25;0.60;99.90
5059;DHT22;2548;52.050;11.036;2024-01-30T08:00:53;0.70;99.90
5059;DHT22;2548;52.050;11.036;2024-01-30T08:03:23;0.70;99.90
5059;DHT22;2548;52.050;11.036;2024-01-30T08:05:52;0.80;99.90
5059;DHT22;2548;52.050;11.036;2024-01-30T08:08:19;0.90;99.90
5059;DHT22;2548;52.050;11.036;2024-01-30T08:10:47;0.90;99.90
5059;DHT22;2548;52.050;11.036;2024-01-30T08:13:15;1.00;99.90
5059;DHT22;2548;52.050;11.036;2024-01-30T08:15:43;1.10;99.90
5059;DHT22;2548;52.050;11.036;2024-01-30T08:18:10;1.20;99.90
5059;DHT22;2548;52.050;11.036;2024-01-30T08:20:38;1.30;99.90
5059;DHT22;2548;52.050;11.036;2024-01-30T08:23:06;1.30;99.90
5059;DHT22;2548;52.050;11.036;2024-01-30T08:25:34;1.30;99.90
5059;DHT22;2548;52.050;11.036;2024-01-30T08:28:03;1.40;99.90
5059;DHT22;2548;52.050;11.036;2024-01-30T08:30:31;1.40;99.90
5059;DHT22;2548;52.050;11.036;2024-01-30T08:32:58;1.50;99.90
5059;DHT22;2548;52.050;11.036;2024-01-30T08:35:25;1.50;99.90
5059;DHT22;2548;52.050;11.036;2024-01-30T08:37:53;1.60;99.90
5059;DHT22;2548;52.050;11.036;2024-01-30T08:40:22;1.60;99.90
5059;DHT22;2548;52.050;11.036;2024-01-30T08:42:50;1.70;99.90
5059;DHT22;2548;52.050;11.036;2024-01-30T08:45:17;1.70;99.90
5059;DHT22;2548;52.050;11.036;2024-01-30T08:47:45;1.70;99.90
5059;DHT22;2548;52.050;11.036;2024-01-30T08:50:12;1.80;99.90
5059;DHT22;2548;52.050;11.036;2024-01-30T08:52:40;1.90;99.90
5059;DHT22;2548;52.050;11.036;2024-01-30T08:55:08;1.90;99.90
5059;DHT22;2548;52.050;11.036;2024-01-30T08:57:36;2.00;99.90
5059;DHT22;2548;52.050;11.036;2024-01-30T09:00:05;2.10;99.90
5059;DHT22;2548;52.050;11.036;2024-01-30T09:02:35;2.20;99.90
5059;DHT22;2548;52.050;11.036;2024-01-30T09:05:03;2.30;99.90
5059;DHT22;2548;52.050;11.036;2024-01-30T09:07:30;2.40;99.90
5059;DHT22;2548;52.050;11.036;2024-01-30T09:09:58;2.40;99.90
5059;DHT22;2548;52.050;11.036;2024-01-30T09:12:25;2.50;99.90
5059;DHT22;2548;52.050;11.036;2024-01-30T09:14:54;2.60;99.90
5059;DHT22;2548;52.050;11.036;2024-01-30T09:17:21;2.60;99.90
5059;DHT22;2548;52.050;11.036;2024-01-30T09:19:49;2.80;99.90
5059;DHT22;2548;52.050;11.036;2024-01-30T09:22:16;2.80;99.90
5059;DHT22;2548;52.050;11.036;2024-01-30T09:24:44;2.90;99.90
5059;DHT22;2548;52.050;11.036;2024-01-30T09:27:11;2.90;99.90
5059;DHT22;2548;52.050;11.036;2024-01-30T09:29:39;3.00;99.90
5059;DHT22;2548;52.050;11.036;2024-01-30T09:32:08;3.10;99.90
5059;DHT22;2548;52.050;11.036;2024-01-30T09:34:36;3.20;99.90
5059;DHT22;2548;52.050;11.036;2024-01-30T09:37:03;3.30;99.90
5059;DHT22;2548;52.050;11.036;2024-01-30T09:39:31;3.30;99.90
5059;DHT22;2548;52.050;11.036;2024-01-30T09:42:05;3.40;99.90
5059;DHT22;2548;52.050;11.036;2024-01-30T09:44:35;3.50;99.90
5059;DHT22;2548;52.050;11.036;2024-01-30T09:47:03;3.50;99.90
5059;DHT22;2548;52.050;11.036;2024-01-30T09:49:34;3.60;99.90
5059;DHT22;2548;52.050;11.036;2024-01-30T09:52:02;3.60;99.90
5059;DHT22;2548;52.050;11.036;2024-01-30T09:54:30;3.70;99.90
5059;DHT22;2548;52.050;11.036;2024-01-30T09:56:58;3.70;99.90
5059;DHT22;2548;52.050;11.036;2024-01-30T09:59:26;3.80;99.90
5059;DHT22;2548;52.050;11.036;2024-01-30T10:01:53;3.80;99.90
5059;DHT22;2548;52.050;11.036;2024-01-30T10:04:21;3.90;99.90
5059;DHT22;2548;52.050;11.036;2024-01-30T10:06:51;3.90;99.90
5059;DHT22;2548;52.050;11.036;2024-01-30T10:09:18;4.00;99.90
5059;DHT22;2548;52.050;11.036;2024-01-30T10:11:46;4.10;99.90
5059;DHT22;2548;52.050;11.036;2024-01-30T10:14:16;4.20;99.90
5059;DHT22;2548;52.050;11.036;2024-01-30T10:16:46;4.20;99.90
5059;DHT22;2548;52.050;11.036;2024-01-30T10:19:14;4.30;99.90
5059;DHT22;2548;52.050;11.036;2024-01-30T10:21:41;4.40;99.90
5059;DHT22;2548;52.050;11.036;2024-01-30T10:24:11;4.40;99.90
5059;DHT22;2548;52.050;11.036;2024-01-30T10:26:40;4.40;99.90
5059;DHT22;2548;52.050;11.036;2024-01-30T10:29:07;4.50;99.90
5059;DHT22;2548;52.050;11.036;2024-01-30T10:31:35;4.50;99.90
5059;DHT22;2548;52.050;11.036;2024-01-30T10:34:02;4.60;99.90
5059;DHT22;2548;52.050;11.036;2024-01-30T10:36:30;4.60;99.90
5059;DHT22;2548;52.050;11.036;2024-01-30T10:39:00;4.70;99.90
5059;DHT22;2548;52.050;11.036;2024-01-30T10:41:31;4.80;99.90
5059;DHT22;2548;52.050;11.036;2024-01-30T10:44:05;4.90;99.90
5059;DHT22;2548;52.050;11.036;2024-01-30T10:46:38;5.00;99.90
5059;DHT22;2548;52.050;11.036;2024-01-30T10:49:06;5.10;99.90
5059;DHT22;2548;52.050;11.036;2024-01-30T10:51:34;5.20;99.90
5059;DHT22;2548;52.050;11.036;2024-01-30T10:54:05;5.30;99.90
5059;DHT22;2548;52.050;11.036;2024-01-30T11:00:23;5.40;99.90
5059;DHT22;2548;52.050;11.036;2024-01-30T11:02:52;5.60;99.90
5059;DHT22;2548;52.050;11.036;2024-01-30T11:05:24;5.70;99.90
5059;DHT22;2548;52.050;11.036;2024-01-30T11:07:52;5.80;99.90
5059;DHT22;2548;52.050;11.036;2024-01-30T11:10:20;5.90;99.90
5059;DHT22;2548;52.050;11.036;2024-01-30T11:12:48;6.00;99.90
5059;DHT22;2548;52.050;11.036;2024-01-30T11:15:17;6.10;99.90
5059;DHT22;2548;52.050;11.036;2024-01-30T11:17:51;6.10;99.90
5059;DHT22;2548;52.050;11.036;2024-01-30T11:20:21;6.20;99.90
5059;DHT22;2548;52.050;11.036;2024-01-30T11:22:49;6.20;99.90
5059;DHT22;2548;52.050;11.036;2024-01-30T11:25:19;6.30;99.90
5059;DHT22;2548;52.050;11.036;2024-01-30T11:27:50;6.40;99.90
5059;DHT22;2548;52.050;11.036;2024-01-30T11:30:24;6.50;99.90
5059;DHT22;2548;52.050;11.036;2024-01-30T11:33:01;6.50;99.90
5059;DHT22;2548;52.050;11.036;2024-01-30T11:35:32;6.60;99.90
5059;DHT22;2548;52.050;11.036;2024-01-30T11:38:00;6.70;99.90
5059;DHT22;2548;52.050;11.036;2024-01-30T11:40:28;6.70;99.90
5059;DHT22;2548;52.050;11.036;2024-01-30T11:42:56;6.80;99.90
5059;DHT22;2548;52.050;11.036;2024-01-30T11:45:25;6.90;99.90
5059;DHT22;2548;52.050;11.036;2024-01-30T11:47:54;7.00;99.90
5059;DHT22;2548;52.050;11.036;2024-01-30T11:50:25;7.00;99.90
5059;DHT22;2548;52.050;11.036;2024-01-30T11:52:53;7.10;99.90
5059;DHT22;2548;52.050;11.036;2024-01-30T11:55:23;7.10;99.90
5059;DHT22;2548;52.050;11.036;2024-01-30T11:57:51;7.20;99.90
5059;DHT22;2548;52.050;11.036;2024-01-30T12:00:22;7.30;99.90
5059;DHT22;2548;52.050;11.036;2024-01-30T12:02:50;7.40;99.90
5059;DHT22;2548;52.050;11.036;2024-01-30T12:05:19;7.50;99.90
5059;DHT22;2548;52.050;11.036;2024-01-30T12:07:48;7.60;99.90
5059;DHT22;2548;52.050;11.036;2024-01-30T12:10:15;7.70;99.90
5059;DHT22;2548;52.050;11.036;2024-01-30T12:12:47;7.80;99.90
5059;DHT22;2548;52.050;11.036;2024-01-30T12:15:16;7.90;99.90
5059;DHT22;2548;52.050;11.036;2024-01-30T12:17:44;8.00;99.90
5059;DHT22;2548;52.050;11.036;2024-01-30T12:20:12;8.10;99.90
5059;DHT22;2548;52.050;11.036;2024-01-30T12:22:41;8.20;99.90
5059;DHT22;2548;52.050;11.036;2024-01-30T12:25:12;8.20;99.90
5059;DHT22;2548;52.050;11.036;2024-01-30T12:27:41;8.20;99.90
5059;DHT22;2548;52.050;11.036;2024-01-30T12:30:11;8.30;99.90
5059;DHT22;2548;52.050;11.036;2024-01-30T12:32:40;8.30;99.90
5059;DHT22;2548;52.050;11.036;2024-01-30T12:35:09;8.30;99.90
5059;DHT22;2548;52.050;11.036;2024-01-30T12:37:37;8.40;99.90
5059;DHT22;2548;52.050;11.036;2024-01-30T12:40:05;8.40;99.90
5059;DHT22;2548;52.050;11.036;2024-01-30T12:42:35;8.40;99.90
5059;DHT22;2548;52.050;11.036;2024-01-30T12:45:03;8.50;99.90
5059;DHT22;2548;52.050;11.036;2024-01-30T12:47:30;8.60;99.90
5059;DHT22;2548;52.050;11.036;2024-01-30T12:49:58;8.60;99.90
5059;DHT22;2548;52.050;11.036;2024-01-30T12:52:26;8.60;99.90
5059;DHT22;2548;52.050;11.036;2024-01-30T12:54:56;8.60;99.90
5059;DHT22;2548;52.050;11.036;2024-01-30T12:57:23;8.70;99.90
5059;DHT22;2548;52.050;11.036;2024-01-30T12:59:52;8.70;99.90
5059;DHT22;2548;52.050;11.036;2024-01-30T13:02:20;8.60;99.90
5059;DHT22;2548;52.050;11.036;2024-01-30T13:04:49;8.60;99.90
5059;DHT22;2548;52.050;11.036;2024-01-30T13:07:16;8.50;99.90
5059;DHT22;2548;52.050;11.036;2024-01-30T13:09:44;8.50;99.90
5059;DHT22;2548;52.050;11.036;2024-01-30T13:12:11;8.40;99.90
5059;DHT22;2548;52.050;11.036;2024-01-30T13:14:39;8.30;99.90
5059;DHT22;2548;52.050;11.036;2024-01-30T13:17:08;8.20;99.90
5059;DHT22;2548;52.050;11.036;2024-01-30T13:19:35;8.20;99.90
5059;DHT22;2548;52.050;11.036;2024-01-30T13:22:03;8.10;99.90
5059;DHT22;2548;52.050;11.036;2024-01-30T13:24:30;8.10;99.90
5059;DHT22;2548;52.050;11.036;2024-01-30T13:26:58;8.00;99.90
5059;DHT22;2548;52.050;11.036;2024-01-30T13:29:25;8.00;99.90
5059;DHT22;2548;52.050;11.036;2024-01-30T13:31:53;8.00;99.90
5059;DHT22;2548;52.050;11.036;2024-01-30T13:34:22;8.00;99.90
5059;DHT22;2548;52.050;11.036;2024-01-30T13:36:49;8.00;99.90
5059;DHT22;2548;52.050;11.036;2024-01-30T13:39:17;8.00;99.90
5059;DHT22;2548;52.050;11.036;2024-01-30T13:41:45;8.10;99.90
5059;DHT22;2548;52.050;11.036;2024-01-30T13:44:12;8.10;99.90
5059;DHT22;2548;52.050;11.036;2024-01-30T13:46:40;8.10;99.90
5059;DHT22;2548;52.050;11.036;2024-01-30T13:49:07;8.10;99.90
5059;DHT22;2548;52.050;11.036;2024-01-30T13:51:36;8.10;99.90
5059;DHT22;2548;52.050;11.036;2024-01-30T13:54:03;8.10;99.90
5059;DHT22;2548;52.050;11.036;2024-01-30T13:56:31;8.10;99.90
5059;DHT22;2548;52.050;11.036;2024-01-30T13:58:58;8.20;99.90
5059;DHT22;2548;52.050;11.036;2024-01-30T14:01:27;8.20;99.90
5059;DHT22;2548;52.050;11.036;2024-01-30T14:03:55;8.10;99.90
5059;DHT22;2548;52.050;11.036;2024-01-30T14:06:23;8.10;99.90
5059;DHT22;2548;52.050;11.036;2024-01-30T14:08:51;8.10;99.90
5059;DHT22;2548;52.050;11.036;2024-01-30T14:11:20;8.10;99.90
5059;DHT22;2548;52.050;11.036;2024-01-30T14:13:47;8.00;99.90
5059;DHT22;2548;52.050;11.036;2024-01-30T14:16:14;8.00;99.90
5059;DHT22;2548;52.050;11.036;2024-01-30T14:18:42;8.00;99.90
5059;DHT22;2548;52.050;11.036;2024-01-30T14:21:10;8.00;99.90
5059;DHT22;2548;52.050;11.036;2024-01-30T14:23:37;7.90;99.90
5059;DHT22;2548;52.050;11.036;2024-01-30T14:26:06;7.80;99.90
5059;DHT22;2548;52.050;11.036;2024-01-30T14:28:34;7.80;99.90
5059;DHT22;2548;52.050;11.036;2024-01-30T14:31:01;7.70;99.90
5059;DHT22;2548;52.050;11.036;2024-01-30T14:33:29;7.70;99.90
5059;DHT22;2548;52.050;11.036;2024-01-30T14:35:57;7.70;99.90
5059;DHT22;2548;52.050;11.036;2024-01-30T14:38:24;7.60;99.90
5059;DHT22;2548;52.050;11.036;2024-01-30T14:40:52;7.60;99.90
5059;DHT22;2548;52.050;11.036;2024-01-30T14:43:21;7.60;99.90
5059;DHT22;2548;52.050;11.036;2024-01-30T14:45:48;7.60;99.90
5059;DHT22;2548;52.050;11.036;2024-01-30T14:48:18;7.60;99.90
5059;DHT22;2548;52.050;11.036;2024-01-30T14:50:46;7.60;99.90
5059;DHT22;2548;52.050;11.036;2024-01-30T14:53:13;7.60;99.90
5059;DHT22;2548;52.050;11.036;2024-01-30T14:55:41;7.60;99.90
5059;DHT22;2548;52.050;11.036;2024-01-30T14:58:08;7.60;99.90
5059;DHT22;2548;52.050;11.036;2024-01-30T15:00:37;7.60;99.90
5059;DHT22;2548;52.050;11.036;2024-01-30T15:03:04;7.60;99.90
5059;DHT22;2548;52.050;11.036;2024-01-30T15:05:32;7.60;99.90
5059;DHT22;2548;52.050;11.036;2024-01-30T15:07:59;7.50;99.90
5059;DHT22;2548;52.050;11.036;2024-01-30T15:10:27;7.50;99.90
5059;DHT22;2548;52.050;11.036;2024-01-30T15:12:54;7.40;99.90
5059;DHT22;2548;52.050;11.036;2024-01-30T15:15:22;7.40;99.90
5059;DHT22;2548;52.050;11.036;2024-01-30T15:17:51;7.30;99.90
5059;DHT22;2548;52.050;11.036;2024-01-30T15:20:18;7.20;99.90
5059;DHT22;2548;52.050;11.036;2024-01-30T15:22:46;7.20;99.90
5059;DHT22;2548;52.050;11.036;2024-01-30T15:25:14;7.20;99.90
5059;DHT22;2548;52.050;11.036;2024-01-30T15:27:42;7.10;99.90
5059;DHT22;2548;52.050;11.036;2024-01-30T15:30:11;7.10;99.90
5059;DHT22;2548;52.050;11.036;2024-01-30T15:32:39;7.10;99.90
5059;DHT22;2548;52.050;11.036;2024-01-30T15:35:08;7.10;99.90
5059;DHT22;2548;52.050;11.036;2024-01-30T15:37:35;7.10;99.90
5059;DHT22;2548;52.050;11.036;2024-01-30T15:40:04;7.10;99.90
5059;DHT22;2548;52.050;11.036;2024-01-30T15:42:32;7.00;99.90
5059;DHT22;2548;52.050;11.036;2024-01-30T15:45:00;7.00;99.90
5059;DHT22;2548;52.050;11.036;2024-01-30T15:47:27;6.90;99.90
5059;DHT22;2548;52.050;11.036;2024-01-30T15:49:55;6.90;99.90
5059;DHT22;2548;52.050;11.036;2024-01-30T15:52:23;6.90;99.90
5059;DHT22;2548;52.050;11.036;2024-01-30T15:54:51;6.90;99.90
5059;DHT22;2548;52.050;11.036;2024-01-30T15:57:18;6.80;99.90
5059;DHT22;2548;52.050;11.036;2024-01-30T15:59:46;6.80;99.90
5059;DHT22;2548;52.050;11.036;2024-01-30T16:02:13;6.70;99.90
5059;DHT22;2548;52.050;11.036;2024-01-30T16:04:41;6.60;99.90
5059;DHT22;2548;52.050;11.036;2024-01-30T16:07:08;6.50;99.90
5059;DHT22;2548;52.050;11.036;2024-01-30T16:09:37;6.50;99.90
5059;DHT22;2548;52.050;11.036;2024-01-30T16:12:05;6.50;99.90